Time;durP1;ratioP1;P1;durP2;ratioP2;P2;SDS_P1;SDS_P2;PMS_P1;PMS_P2;Temp;Humidity;BMP_temperature;BMP_pressure;BME280_temperature;BME280_humidity;BME280_pressure;Samples;Min_cycle;Max_cycle;Signal;HPM_P1;HPM_P2
2024/02/07 00:02:17;;;;;;;0.43;0.30;;;;;;;-3.40;69.43;98990.75;5037588;28;20430;-72
2024/02/07 00:04:44;;;;;;;0.32;0.20;;;;;;;-3.42;69.65;98989.03;5044217;28;20571;-73
2024/02/07 00:07:11;;;;;;;0.40;0.30;;;;;;;-3.43;69.89;98998.41;5045920;28;20098;-73
2024/02/07 00:09:38;;;;;;;0.47;0.30;;;;;;;-3.43;69.79;99002.69;5040293;28;20044;-73
2024/02/07 00:12:05;;;;;;;5.25;0.50;;;;;;;-3.44;69.13;98999.28;5042038;28;20051;-72
2024/02/07 00:14:32;;;;;;;0.40;0.20;;;;;;;-3.45;69.17;98994.13;5047611;28;20104;-72
2024/02/07 00:17:01;;;;;;;2.10;0.55;;;;;;;-3.45;69.24;99024.81;5042745;28;20069;-72
2024/02/07 00:19:28;;;;;;;1.65;0.52;;;;;;;-3.50;69.64;98989.88;5044035;28;20466;-72
2024/02/07 00:21:55;;;;;;;2.03;0.40;;;;;;;-3.49;69.09;98990.72;5042603;28;20525;-72
2024/02/07 00:24:22;;;;;;;0.75;0.40;;;;;;;-3.54;69.34;98980.47;5042838;28;20072;-72
2024/02/07 00:26:49;;;;;;;1.65;0.38;;;;;;;-3.52;69.25;98998.38;5041903;28;20418;-71
2024/02/07 00:29:16;;;;;;;1.80;0.45;;;;;;;-3.48;69.50;98997.53;5044689;28;20088;-71
2024/02/07 00:31:43;;;;;;;0.50;0.50;;;;;;;-3.47;69.48;99012.03;5047602;28;20107;-71
2024/02/07 00:34:11;;;;;;;1.75;0.52;;;;;;;-3.49;69.05;99009.47;5042095;28;20037;-71
2024/02/07 00:36:39;;;;;;;1.20;0.60;;;;;;;-3.50;69.46;99012.88;5043440;28;20046;-75
2024/02/07 00:39:06;;;;;;;1.40;0.70;;;;;;;-3.49;69.39;99004.34;5038805;28;20053;-75
2024/02/07 00:41:33;;;;;;;2.30;0.68;;;;;;;-3.50;69.44;99007.78;5043189;28;20098;-74
2024/02/07 00:44:00;;;;;;;0.77;0.30;;;;;;;-3.51;69.55;98995.81;5040905;28;20079;-75
2024/02/07 00:46:27;;;;;;;3.85;0.70;;;;;;;-3.51;69.20;99000.94;5045685;28;20045;-74
2024/02/07 00:48:55;;;;;;;4.38;0.52;;;;;;;-3.52;69.49;98999.22;5038557;28;20477;-75
2024/02/07 00:51:23;;;;;;;1.30;0.50;;;;;;;-3.52;69.04;98999.22;5042284;28;20045;-75
2024/02/07 00:53:50;;;;;;;0.65;0.40;;;;;;;-3.54;69.38;98995.78;5042654;28;20053;-75
2024/02/07 00:56:17;;;;;;;1.52;0.40;;;;;;;-3.53;68.78;98989.00;5048912;28;20037;-74
2024/02/07 00:58:44;;;;;;;1.17;0.50;;;;;;;-3.53;69.63;99005.19;5043133;28;20049;-75
2024/02/07 01:01:12;;;;;;;1.33;0.60;;;;;;;-3.53;68.57;98992.41;5041000;28;20501;-75
2024/02/07 01:03:39;;;;;;;0.50;0.40;;;;;;;-3.55;68.39;98996.66;5043325;28;20136;-75
2024/02/07 01:06:06;;;;;;;1.15;0.57;;;;;;;-3.55;68.90;99003.47;5041292;28;20494;-75
2024/02/07 01:08:35;;;;;;;0.90;0.40;;;;;;;-3.56;69.09;99001.75;5042501;28;20103;-75
2024/02/07 01:11:02;;;;;;;1.00;0.52;;;;;;;-3.55;69.30;99012.00;5041407;28;20046;-75
2024/02/07 01:13:29;;;;;;;2.20;0.50;;;;;;;-3.55;68.85;99019.66;5039131;28;20476;-75
2024/02/07 01:15:56;;;;;;;0.30;0.30;;;;;;;-3.55;68.83;99016.25;5037864;28;20046;-75
2024/02/07 01:18:23;;;;;;;2.05;0.50;;;;;;;-3.55;68.72;99023.94;5042380;28;20133;-75
2024/02/07 01:20:50;;;;;;;2.97;0.82;;;;;;;-3.56;68.93;99025.63;5042295;28;20514;-75
2024/02/07 01:23:17;;;;;;;2.10;1.25;;;;;;;-3.58;68.30;99029.03;5044801;28;20072;-75
2024/02/07 01:25:46;;;;;;;1.70;0.32;;;;;;;-3.58;68.54;99018.78;5042216;28;20583;-75
2024/02/07 01:28:13;;;;;;;1.48;0.65;;;;;;;-3.59;68.59;99023.06;5036548;28;20041;-75
2024/02/07 01:30:40;;;;;;;6.03;0.60;;;;;;;-3.60;68.44;99020.47;5043980;28;20486;-75
2024/02/07 01:33:07;;;;;;;6.22;2.03;;;;;;;-3.61;68.43;99018.78;5037453;28;20509;-75
2024/02/07 01:35:34;;;;;;;1.15;0.40;;;;;;;-3.61;68.79;99019.63;5040245;28;20055;-74
2024/02/07 01:38:07;;;;;;;1.33;0.50;;;;;;;-3.60;68.81;99021.31;5032325;28;20057;-74
2024/02/07 01:40:42;;;;;;;2.63;0.50;;;;;;;-3.60;68.69;99011.09;5038575;28;20136;-74
2024/02/07 01:43:11;;;;;;;1.55;0.70;;;;;;;-3.61;68.96;99019.63;5038712;28;20132;-74
2024/02/07 01:45:39;;;;;;;1.02;0.55;;;;;;;-3.61;69.48;99029.00;5043355;28;20048;-72
2024/02/07 01:48:07;;;;;;;3.38;1.33;;;;;;;-3.60;69.39;99040.94;5047960;28;20043;-71
2024/02/07 01:50:37;;;;;;;1.83;0.47;;;;;;;-3.67;68.81;99024.72;5040832;28;20053;-72
2024/02/07 01:53:06;;;;;;;1.15;0.45;;;;;;;-3.62;69.00;99038.38;5041548;28;20410;-72
2024/02/07 01:55:35;;;;;;;3.13;0.50;;;;;;;-3.63;69.00;99034.09;5040512;28;20586;-71
2024/02/07 01:58:02;;;;;;;2.00;0.55;;;;;;;-3.62;68.81;99043.50;5036612;28;20045;-71
2024/02/07 02:00:31;;;;;;;0.80;0.40;;;;;;;-3.63;68.67;99041.75;5050770;28;20075;-71
2024/02/07 02:02:59;;;;;;;1.20;0.52;;;;;;;-3.65;69.11;99058.78;5037393;28;20080;-71
2024/02/07 02:05:26;;;;;;;1.70;0.75;;;;;;;-3.66;69.11;99051.97;5039267;28;20053;-71
2024/02/07 02:07:53;;;;;;;3.17;0.52;;;;;;;-3.75;69.08;99037.44;5037702;28;20079;-71
2024/02/07 02:10:21;;;;;;;3.67;0.68;;;;;;;-3.72;69.22;99052.78;5043951;28;20076;-71
2024/02/07 02:12:48;;;;;;;1.55;0.60;;;;;;;-3.73;69.29;99060.44;5034923;28;20046;-71
2024/02/07 02:15:15;;;;;;;3.15;2.20;;;;;;;-3.74;68.96;99058.72;5043629;28;20050;-71
2024/02/07 02:17:43;;;;;;;0.93;0.40;;;;;;;-3.75;69.13;99072.34;5044077;28;20045;-72
2024/02/07 02:20:11;;;;;;;1.23;0.45;;;;;;;-3.76;69.33;99065.50;5039915;28;20048;-71
2024/02/07 02:22:59;;;;;;;4.13;0.40;;;;;;;-3.75;69.19;99060.44;5038162;28;20076;-71
2024/02/07 02:25:50;;;;;;;1.67;0.52;;;;;;;-3.76;69.01;99063.84;5037498;28;20087;-71
2024/02/07 02:28:31;;;;;;;2.05;0.40;;;;;;;-3.80;69.04;99059.53;5041044;28;20048;-71
2024/02/07 02:31:02;;;;;;;3.47;0.68;;;;;;;-3.81;69.16;99067.19;5042222;28;20050;-71
2024/02/07 02:33:33;;;;;;;0.82;0.50;;;;;;;-3.84;68.92;99073.13;5037968;28;20080;-71
2024/02/07 02:36:04;;;;;;;0.40;0.15;;;;;;;-3.83;69.38;99071.44;5041984;28;20417;-71
2024/02/07 02:38:35;;;;;;;0.95;0.30;;;;;;;-3.84;69.21;99092.72;5035593;28;20494;-71
2024/02/07 02:41:04;;;;;;;0.60;0.40;;;;;;;-3.85;69.32;99080.78;5037233;28;20481;-70
2024/02/07 02:43:31;;;;;;;3.63;0.50;;;;;;;-3.88;69.18;99086.72;5041336;28;20049;-71
2024/02/07 02:45:58;;;;;;;0.93;0.32;;;;;;;-3.88;69.51;99083.31;5039191;28;20049;-87
2024/02/07 02:48:26;;;;;;;1.40;0.50;;;;;;;-3.85;69.16;99091.00;5040691;28;20080;-86
2024/02/07 02:50:54;;;;;;;1.08;0.60;;;;;;;-3.85;69.44;99096.97;5044019;28;20530;-88
2024/02/07 02:53:21;;;;;;;0.95;0.40;;;;;;;-3.84;69.44;99097.84;5039373;28;20132;-86
2024/02/07 02:55:49;;;;;;;1.45;0.43;;;;;;;-3.83;69.71;99096.97;5042094;28;20065;-74
2024/02/07 02:58:18;;;;;;;1.00;0.50;;;;;;;-3.84;69.59;99098.69;5038979;28;20667;-74
2024/02/07 03:00:50;;;;;;;0.98;0.43;;;;;;;-3.84;69.63;99101.25;5040950;28;20050;-74
2024/02/07 03:03:17;;;;;;;1.35;0.50;;;;;;;-3.84;69.88;99097.84;5038773;28;20045;-74
2024/02/07 03:05:58;;;;;;;3.55;0.43;;;;;;;-3.84;69.48;99103.81;5039652;28;20041;-74
2024/02/07 03:08:39;;;;;;;1.35;0.47;;;;;;;-3.83;69.88;99112.31;5036883;28;20650;-74
2024/02/07 03:11:08;;;;;;;1.02;0.68;;;;;;;-3.86;69.99;99107.19;5042562;28;20057;-74
2024/02/07 03:13:37;;;;;;;0.43;0.32;;;;;;;-3.81;69.81;99120.84;5041360;28;20045;-74
2024/02/07 03:16:05;;;;;;;1.98;0.60;;;;;;;-3.82;69.97;99119.13;5038810;28;20055;-73
2024/02/07 03:18:33;;;;;;;1.92;0.50;;;;;;;-3.83;70.26;99119.97;5050861;28;20508;-74
2024/02/07 03:21:05;;;;;;;0.73;0.50;;;;;;;-3.82;70.16;99114.03;5043794;28;20132;-74
2024/02/07 03:23:32;;;;;;;1.35;0.65;;;;;;;-3.82;69.84;99119.13;5047286;28;20088;-74
2024/02/07 03:26:00;;;;;;;0.82;0.47;;;;;;;-3.80;70.25;99120.00;5050297;28;20069;-73
2024/02/07 03:28:27;;;;;;;0.15;0.08;;;;;;;-3.80;70.14;99117.44;5047289;28;20493;-73
2024/02/07 03:30:54;;;;;;;0.88;0.38;;;;;;;-3.81;69.75;99119.16;5040145;28;20497;-73
2024/02/07 03:33:22;;;;;;;1.25;0.50;;;;;;;-3.79;69.84;99131.94;5043319;28;20085;-74
2024/02/07 03:35:51;;;;;;;2.20;0.60;;;;;;;-3.79;70.25;99126.81;5042699;28;20050;-72
2024/02/07 03:38:20;;;;;;;1.10;0.60;;;;;;;-3.77;69.88;99132.81;5030361;28;20053;-73
2024/02/07 03:40:49;;;;;;;5.57;0.63;;;;;;;-3.75;69.52;99134.53;5041625;28;20575;-73
2024/02/07 03:43:17;;;;;;;1.05;0.45;;;;;;;-3.75;69.99;99123.47;5041228;28;20052;-72
2024/02/07 03:45:44;;;;;;;1.45;0.35;;;;;;;-3.77;70.19;99126.00;5043354;28;20505;-73
2024/02/07 03:48:13;;;;;;;0.80;0.47;;;;;;;-3.74;70.19;99136.22;5052088;28;20077;-73
2024/02/07 03:50:40;;;;;;;0.93;0.47;;;;;;;-3.74;69.62;99136.22;5042531;28;20045;-74
2024/02/07 03:53:08;;;;;;;2.33;0.50;;;;;;;-3.74;69.63;99130.28;5042063;28;20418;-72
2024/02/07 03:55:37;;;;;;;1.40;0.60;;;;;;;-3.74;70.09;99125.16;5046715;28;20052;-74
2024/02/07 03:58:06;;;;;;;1.33;0.70;;;;;;;-3.71;69.70;99127.75;5046090;28;20111;-74
2024/02/07 04:00:33;;;;;;;0.95;0.40;;;;;;;-3.74;69.98;99133.69;5043247;28;20037;-74
2024/02/07 04:03:01;;;;;;;1.15;0.50;;;;;;;-3.70;70.26;99142.25;5042262;28;20100;-74
2024/02/07 04:05:28;;;;;;;1.38;0.68;;;;;;;-3.69;69.99;99143.97;5049498;28;20080;-73
2024/02/07 04:07:55;;;;;;;1.45;0.50;;;;;;;-3.68;69.70;99148.22;5054681;28;20071;-87
2024/02/07 04:10:23;;;;;;;1.52;0.60;;;;;;;-3.70;70.15;99152.47;5040388;28;20469;-86
2024/02/07 05:15:45;;;;;;;2.03;0.70;;;;;;;-3.63;68.77;99230.91;5045572;28;20111;-77
2024/02/07 05:18:14;;;;;;;1.23;0.50;;;;;;;-3.62;68.79;99237.75;5045101;28;20049;-77
2024/02/07 05:20:41;;;;;;;2.65;0.50;;;;;;;-3.60;68.56;99238.59;5036617;28;20498;-78
2024/02/07 05:23:08;;;;;;;1.58;0.65;;;;;;;-3.59;69.04;99242.00;5043799;28;20068;-77
2024/02/07 05:25:36;;;;;;;2.25;0.40;;;;;;;-3.59;68.87;99253.13;5040477;28;20497;-77
2024/02/07 05:28:03;;;;;;;2.30;1.05;;;;;;;-3.59;68.65;99253.13;5035877;28;20530;-77
2024/02/07 05:30:30;;;;;;;1.95;0.50;;;;;;;-3.57;68.12;99260.78;5048778;28;20049;-77
2024/02/07 05:32:57;;;;;;;1.35;0.47;;;;;;;-3.59;67.88;99265.91;5042475;28;20486;-76
2024/02/07 05:35:25;;;;;;;0.82;0.40;;;;;;;-3.60;67.99;99269.28;5042923;28;20037;-77
2024/02/07 05:37:52;;;;;;;1.20;0.70;;;;;;;-3.62;67.64;99276.09;5041282;28;20391;-77
2024/02/07 05:40:20;;;;;;;1.50;0.50;;;;;;;-3.64;67.67;99275.22;5041764;28;20073;-77
2024/02/07 05:42:47;;;;;;;1.30;0.40;;;;;;;-3.64;67.94;99284.59;5043909;28;20041;-77
2024/02/07 05:45:14;;;;;;;0.82;0.40;;;;;;;-3.63;67.94;99291.41;5041308;28;20069;-78
2024/02/07 05:47:43;;;;;;;1.23;0.80;;;;;;;-3.64;67.00;99290.56;5037894;28;20470;-77
2024/02/07 05:50:10;;;;;;;1.33;0.40;;;;;;;-3.65;66.69;99293.09;5042577;28;20084;-78
2024/02/07 05:52:40;;;;;;;1.63;0.60;;;;;;;-3.66;66.86;99291.38;5051130;28;20080;-77
2024/02/07 05:55:07;;;;;;;3.10;0.63;;;;;;;-3.67;66.61;99295.63;5041092;28;20068;-77
2024/02/07 05:57:35;;;;;;;3.60;0.50;;;;;;;-3.67;67.13;99290.53;5041091;28;20150;-77
2024/02/07 06:00:04;;;;;;;0.80;0.70;;;;;;;-3.65;66.85;99293.09;5044914;28;20041;-79
2024/02/07 06:02:31;;;;;;;1.45;0.50;;;;;;;-3.65;67.47;99296.50;5043117;28;20758;-75
2024/02/07 06:05:01;;;;;;;0.90;0.30;;;;;;;-3.67;66.91;99300.75;5039016;28;20069;-74
2024/02/07 06:07:28;;;;;;;2.33;0.40;;;;;;;-3.69;67.04;99297.31;5036473;28;20041;-75
2024/02/07 06:09:57;;;;;;;1.50;0.50;;;;;;;-3.70;66.46;99310.94;5042558;28;20371;-75
2024/02/07 06:12:24;;;;;;;1.35;0.40;;;;;;;-3.70;66.86;99300.72;5040972;28;20046;-77
2024/02/07 06:14:51;;;;;;;1.77;0.47;;;;;;;-3.66;67.39;99312.69;5037321;28;20467;-78
2024/02/07 06:17:18;;;;;;;1.75;0.50;;;;;;;-3.66;67.11;99322.91;5042174;28;20102;-70
2024/02/07 06:19:46;;;;;;;1.27;0.45;;;;;;;-3.66;66.65;99320.34;5042504;28;20535;-70
2024/02/07 06:22:13;;;;;;;1.00;0.70;;;;;;;-3.67;66.34;99328.88;5048105;28;20049;-70
2024/02/07 06:24:40;;;;;;;2.83;0.45;;;;;;;-3.69;66.03;99327.97;5043395;28;20499;-70
2024/02/07 06:27:08;;;;;;;0.40;0.30;;;;;;;-3.68;66.70;99334.78;5048044;28;20156;-81
2024/02/07 06:29:35;;;;;;;1.17;0.40;;;;;;;-3.68;65.73;99337.34;5046909;28;20960;-81
2024/02/07 06:32:02;;;;;;;1.23;0.50;;;;;;;-3.70;66.12;99339.06;5043154;28;20521;-81
2024/02/07 06:34:31;;;;;;;1.13;0.40;;;;;;;-3.72;66.35;99348.41;5047023;28;20093;-82
2024/02/07 06:37:00;;;;;;;1.02;0.60;;;;;;;-3.72;65.91;99346.69;5039614;28;20046;-81
2024/02/07 06:39:27;;;;;;;0.93;0.40;;;;;;;-3.71;66.58;99348.41;5049727;28;20045;-82
2024/02/07 06:41:54;;;;;;;0.80;0.40;;;;;;;-3.71;66.18;99342.44;5046378;28;20080;-83
2024/02/07 06:44:22;;;;;;;2.55;0.50;;;;;;;-3.71;65.48;99339.88;5046675;28;20053;-80
2024/02/07 06:46:49;;;;;;;3.33;0.50;;;;;;;-3.72;66.12;99350.94;5043316;28;20053;-80
2024/02/07 06:49:16;;;;;;;0.90;0.40;;;;;;;-3.71;65.92;99350.09;5041308;28;20092;-79
2024/02/07 06:51:43;;;;;;;1.13;0.50;;;;;;;-3.71;65.80;99350.09;5045944;28;20457;-81
2024/02/07 06:54:11;;;;;;;0.88;0.40;;;;;;;-3.72;65.76;99353.50;5052253;28;20505;-81
2024/02/07 06:56:38;;;;;;;2.00;0.43;;;;;;;-3.72;66.02;99358.63;5049714;28;20091;-81
2024/02/07 06:59:06;;;;;;;1.08;0.43;;;;;;;-3.70;66.21;99359.50;5042168;28;20091;-80
2024/02/07 07:01:34;;;;;;;1.65;0.35;;;;;;;-3.70;66.03;99362.06;5046104;28;20049;-81
2024/02/07 07:04:01;;;;;;;8.00;0.40;;;;;;;-3.71;66.37;99355.22;5043769;28;20081;-83
2024/02/07 07:06:28;;;;;;;0.55;0.25;;;;;;;-3.69;65.99;99366.31;5047720;28;20159;-80
2024/02/07 07:08:55;;;;;;;1.98;0.60;;;;;;;-3.71;66.27;99371.41;5046406;28;20045;-80
2024/02/07 07:11:22;;;;;;;0.50;0.30;;;;;;;-3.69;66.33;99374.00;5047526;28;20097;-82
2024/02/07 07:13:49;;;;;;;4.18;0.70;;;;;;;-3.71;66.16;99376.50;5046649;28;20048;-80
2024/02/07 07:16:16;;;;;;;0.10;0.10;;;;;;;-3.72;65.87;99385.03;5056661;28;20045;-80
2024/02/07 07:18:44;;;;;;;0.52;0.30;;;;;;;-3.73;66.15;99387.59;5047961;28;20041;-79
2024/02/07 07:21:11;;;;;;;2.05;0.50;;;;;;;-3.73;66.25;99392.69;5050209;28;20077;-80
2024/02/07 07:23:38;;;;;;;0.88;0.40;;;;;;;-3.73;65.98;99410.59;5049278;28;20080;-80
2024/02/07 07:26:05;;;;;;;0.93;0.40;;;;;;;-3.72;66.42;99408.03;5045807;28;20076;-68
2024/02/07 07:28:32;;;;;;;0.35;0.30;;;;;;;-3.74;65.46;99404.59;5045979;28;20119;-71
2024/02/07 07:30:59;;;;;;;0.52;0.40;;;;;;;-3.74;65.72;99411.41;5040755;28;20498;-71
2024/02/07 07:33:26;;;;;;;1.05;0.50;;;;;;;-3.75;65.54;99409.69;5045988;28;20050;-70
2024/02/07 07:35:55;;;;;;;1.58;0.40;;;;;;;-3.77;65.12;99412.22;5043047;28;20076;-70
2024/02/07 07:38:22;;;;;;;0.68;0.50;;;;;;;-3.77;65.74;99424.16;5044067;28;20041;-69
2024/02/07 07:40:49;;;;;;;0.77;0.40;;;;;;;-3.77;65.76;99416.47;5036477;28;20048;-70
2024/02/07 07:43:16;;;;;;;0.95;0.50;;;;;;;-3.77;64.63;99417.31;5048133;28;20473;-71
2024/02/07 07:45:43;;;;;;;0.65;0.30;;;;;;;-3.78;64.74;99425.00;5043576;28;20104;-70
2024/02/07 07:48:10;;;;;;;1.00;0.50;;;;;;;-3.79;64.56;99425.81;5042025;28;20073;-71
2024/02/07 07:50:37;;;;;;;2.15;0.28;;;;;;;-3.80;64.93;99435.19;5046425;28;20081;-71
2024/02/07 07:53:05;;;;;;;1.83;0.50;;;;;;;-3.81;64.40;99440.28;5047300;28;20076;-70
2024/02/07 07:55:32;;;;;;;1.33;0.30;;;;;;;-3.83;64.39;99440.25;5046194;28;20111;-71
2024/02/07 07:57:59;;;;;;;2.97;0.40;;;;;;;-3.84;64.30;99442.81;5050330;28;20045;-70
2024/02/07 08:00:27;;;;;;;0.08;0.00;;;;;;;-3.84;64.62;99445.34;5050049;28;20099;-71
2024/02/07 08:02:54;;;;;;;1.38;0.30;;;;;;;-3.86;64.61;99452.13;5049262;28;20481;-71
2024/02/07 08:05:21;;;;;;;2.10;0.40;;;;;;;-3.85;64.66;99453.84;5045566;28;20076;-71
2024/02/07 08:07:48;;;;;;;1.30;0.40;;;;;;;-3.85;64.47;99461.50;5040500;28;20538;-71
2024/02/07 08:10:16;;;;;;;1.55;0.45;;;;;;;-3.86;64.67;99459.78;5040031;28;20049;-71
2024/02/07 08:12:43;;;;;;;0.75;0.30;;;;;;;-3.85;64.66;99462.34;5042312;28;20519;-71
2024/02/07 08:15:11;;;;;;;0.70;0.30;;;;;;;-3.84;64.93;99466.66;5039202;28;20129;-70
2024/02/07 08:17:38;;;;;;;1.05;0.20;;;;;;;-3.83;64.77;99480.28;5042301;28;20489;-71
2024/02/07 08:20:06;;;;;;;0.40;0.20;;;;;;;-3.85;64.14;99485.34;5036899;28;20521;-71
2024/02/07 08:22:33;;;;;;;1.00;0.40;;;;;;;-3.86;64.29;99480.25;5047149;28;20060;-71
2024/02/07 08:25:00;;;;;;;1.80;0.50;;;;;;;-3.85;64.26;99489.63;5052807;28;20045;-71
2024/02/07 08:27:28;;;;;;;1.25;0.50;;;;;;;-3.86;64.36;99482.78;5045315;28;20088;-69
2024/02/07 08:29:55;;;;;;;3.60;0.38;;;;;;;-3.86;64.44;99483.66;5042529;28;20116;-71
2024/02/07 08:32:22;;;;;;;0.82;0.40;;;;;;;-3.85;63.63;99482.81;5047884;28;20073;-71
2024/02/07 08:34:49;;;;;;;1.58;0.63;;;;;;;-3.85;63.38;99487.06;5040301;28;20073;-71
2024/02/07 08:37:16;;;;;;;0.82;0.50;;;;;;;-3.87;63.60;99486.19;5041482;28;20478;-70
2024/02/07 08:39:43;;;;;;;2.88;0.38;;;;;;;-3.83;63.83;99499.03;5048755;28;20044;-70
2024/02/07 08:42:10;;;;;;;1.83;0.68;;;;;;;-3.84;63.74;99496.47;5046792;28;20084;-70
2024/02/07 08:44:38;;;;;;;0.75;0.30;;;;;;;-3.85;63.26;99490.47;5046398;28;20077;-70
2024/02/07 08:47:06;;;;;;;1.77;0.40;;;;;;;-3.84;63.88;99496.47;5041771;28;20239;-72
2024/02/07 08:49:33;;;;;;;1.00;0.50;;;;;;;-3.81;63.84;99505.03;5045425;28;20141;-73
2024/02/07 08:52:00;;;;;;;0.80;0.30;;;;;;;-3.80;63.67;99516.97;5045125;28;20486;-73
2024/02/07 08:54:27;;;;;;;2.38;0.40;;;;;;;-3.80;63.36;99516.09;5047469;28;20075;-73
2024/02/07 08:56:54;;;;;;;1.45;0.40;;;;;;;-3.81;63.33;99514.41;5040362;28;20124;-72
2024/02/07 08:59:21;;;;;;;3.78;0.40;;;;;;;-3.81;63.09;99511.84;5046569;28;20068;-73
2024/02/07 09:01:49;;;;;;;1.55;0.30;;;;;;;-3.80;63.40;99514.41;5041575;28;20119;-73
2024/02/07 09:04:16;;;;;;;1.30;0.40;;;;;;;-3.77;62.49;99518.69;5041748;28;20069;-73
2024/02/07 09:06:44;;;;;;;1.35;0.50;;;;;;;-3.77;63.17;99514.44;5041609;28;20521;-73
2024/02/07 09:09:11;;;;;;;1.50;0.40;;;;;;;-3.74;62.98;99518.75;5041945;28;20073;-73
2024/02/07 09:11:38;;;;;;;0.98;0.30;;;;;;;-3.72;63.18;99524.75;5036797;28;20080;-73
2024/02/07 09:14:05;;;;;;;4.88;0.40;;;;;;;-3.69;62.84;99527.34;5043419;28;20077;-73
2024/02/07 09:16:32;;;;;;;0.45;0.30;;;;;;;-3.67;63.13;99530.78;5037945;28;20037;-73
2024/02/07 09:19:00;;;;;;;2.53;0.50;;;;;;;-3.67;63.37;99535.91;5041173;28;20041;-72
2024/02/07 09:21:27;;;;;;;2.15;0.50;;;;;;;-3.66;62.68;99541.88;5038320;28;20076;-72
2024/02/07 09:23:56;;;;;;;1.48;0.25;;;;;;;-3.68;63.17;99531.63;5038343;28;20138;-73
2024/02/07 09:26:23;;;;;;;0.47;0.30;;;;;;;-3.64;63.51;99538.50;5045529;28;20096;-73
2024/02/07 09:28:50;;;;;;;0.50;0.50;;;;;;;-3.66;63.33;99532.50;5046132;28;20128;-72
2024/02/07 09:31:17;;;;;;;1.58;0.30;;;;;;;-3.63;63.26;99536.81;5039617;28;20169;-73
2024/02/07 09:33:44;;;;;;;1.73;0.40;;;;;;;-3.62;62.78;99546.19;5049126;28;20906;-73
2024/02/07 09:36:13;;;;;;;0.60;0.28;;;;;;;-3.63;63.12;99545.31;5040906;28;20545;-73
2024/02/07 09:38:40;;;;;;;1.77;0.30;;;;;;;-3.61;62.62;99545.38;5041975;28;20065;-72
2024/02/07 09:41:09;;;;;;;1.00;0.30;;;;;;;-3.60;63.32;99553.03;5044197;28;20493;-73
2024/02/07 09:43:36;;;;;;;0.55;0.30;;;;;;;-3.61;63.48;99556.44;5042376;28;20127;-73
2024/02/07 09:46:07;;;;;;;2.35;0.55;;;;;;;-3.60;63.32;99558.16;5040442;28;20072;-72
2024/02/07 09:48:34;;;;;;;2.22;0.52;;;;;;;-3.62;63.10;99552.19;5042858;28;20049;-72
2024/02/07 09:51:02;;;;;;;0.77;0.50;;;;;;;-3.62;63.05;99566.63;5039629;28;20041;-72
2024/02/07 09:53:34;;;;;;;2.75;0.40;;;;;;;-3.63;62.49;99560.66;5040857;28;20088;-72
2024/02/07 09:56:01;;;;;;;0.73;0.20;;;;;;;-3.63;62.76;99573.44;5042352;28;20091;-68
2024/02/07 09:58:30;;;;;;;2.55;0.40;;;;;;;-3.64;62.65;99579.41;5039228;28;20139;-69
2024/02/07 10:00:57;;;;;;;0.25;0.10;;;;;;;-3.65;62.88;99580.22;5040934;28;20476;-69
2024/02/07 10:03:25;;;;;;;0.70;0.30;;;;;;;-3.67;62.46;99584.47;5037899;28;20538;-69
2024/02/07 10:05:53;;;;;;;3.33;0.20;;;;;;;-3.68;62.65;99594.66;5038171;28;20054;-69
2024/02/07 10:08:21;;;;;;;0.57;0.30;;;;;;;-3.70;62.52;99592.09;5038108;28;20045;-69
2024/02/07 10:10:50;;;;;;;1.10;0.38;;;;;;;-3.71;62.64;99598.88;5042518;28;20130;-68
2024/02/07 10:13:19;;;;;;;0.50;0.20;;;;;;;-3.73;61.82;99602.28;5042136;28;20498;-69
2024/02/07 10:15:48;;;;;;;2.33;0.50;;;;;;;-3.73;62.36;99608.25;5043736;28;20052;-68
2024/02/07 10:18:15;;;;;;;0.80;0.30;;;;;;;-3.72;62.31;99614.22;5044190;28;20069;-68
2024/02/07 10:20:52;;;;;;;1.67;0.45;;;;;;;-3.73;62.36;99615.06;5041901;28;20533;-69
2024/02/07 10:23:19;;;;;;;0.95;0.32;;;;;;;-3.73;62.24;99622.72;5048374;28;20045;-69
2024/02/07 10:25:51;;;;;;;1.00;0.20;;;;;;;-3.74;61.85;99620.97;5047793;28;20088;-69
2024/02/07 10:28:18;;;;;;;0.30;0.20;;;;;;;-3.74;62.33;99623.53;5039603;28;20045;-69
2024/02/07 10:30:56;;;;;;;1.10;0.30;;;;;;;-3.75;62.26;99622.69;5050060;28;20481;-69
2024/02/07 10:33:23;;;;;;;0.55;0.30;;;;;;;-3.75;62.36;99620.13;5054112;28;20052;-69
2024/02/07 10:35:59;;;;;;;1.58;0.30;;;;;;;-3.74;62.24;99610.75;5048292;28;20099;-69
2024/02/07 10:38:27;;;;;;;1.02;0.65;;;;;;;-3.74;62.34;99621.84;5051988;28;20053;-69
2024/02/07 10:40:56;;;;;;;3.35;0.40;;;;;;;-3.74;61.82;99626.09;5045660;28;20046;-69
2024/02/07 10:43:26;;;;;;;0.50;0.30;;;;;;;-3.75;61.82;99632.91;5046124;28;20092;-69
2024/02/07 10:46:00;;;;;;;0.35;0.25;;;;;;;-3.75;61.44;99634.59;5049254;28;20470;-69
2024/02/07 10:48:28;;;;;;;1.80;0.50;;;;;;;-3.79;60.93;99640.47;5045866;28;20108;-69
2024/02/07 10:50:56;;;;;;;0.60;0.30;;;;;;;-3.79;61.57;99632.81;5051374;28;20080;-69
2024/02/07 10:53:23;;;;;;;0.88;0.20;;;;;;;-3.79;61.80;99627.72;5047737;28;20084;-69
2024/02/07 10:55:51;;;;;;;0.60;0.20;;;;;;;-3.78;61.39;99630.31;5047758;28;20518;-73
2024/02/07 10:58:24;;;;;;;0.30;0.20;;;;;;;-3.77;61.47;99636.28;5047905;28;20042;-73
2024/02/07 11:00:53;;;;;;;1.20;0.28;;;;;;;-3.76;61.27;99631.19;5045918;28;20509;-73
2024/02/07 11:03:21;;;;;;;1.60;0.40;;;;;;;-3.73;61.84;99633.81;5044521;28;20099;-73
2024/02/07 11:05:48;;;;;;;0.93;0.30;;;;;;;-3.71;61.64;99626.13;5047370;28;20540;-73
2024/02/07 11:08:16;;;;;;;2.20;0.43;;;;;;;-3.71;61.65;99631.25;5047658;28;20049;-73
2024/02/07 11:10:43;;;;;;;2.05;0.40;;;;;;;-3.70;62.03;99633.00;5047939;28;20505;-73
2024/02/07 11:13:11;;;;;;;5.07;0.40;;;;;;;-3.68;61.80;99635.56;5046795;28;20045;-73
2024/02/07 11:15:40;;;;;;;1.45;0.45;;;;;;;-3.67;62.39;99635.59;5047684;28;20085;-73
2024/02/07 11:18:11;;;;;;;1.50;0.52;;;;;;;-3.65;61.75;99635.59;5047419;28;20049;-73
2024/02/07 11:20:38;;;;;;;3.47;0.45;;;;;;;-3.65;61.54;99631.34;5045768;28;20046;-73
2024/02/07 11:23:12;;;;;;;2.97;0.40;;;;;;;-3.63;61.25;99624.56;5044692;28;20514;-73
2024/02/07 11:25:41;;;;;;;2.20;0.35;;;;;;;-3.63;61.30;99624.56;5045076;28;20053;-73
2024/02/07 11:28:09;;;;;;;2.22;0.30;;;;;;;-3.61;61.51;99620.34;5044777;28;20156;-73
2024/02/07 11:30:37;;;;;;;0.73;0.20;;;;;;;-3.59;61.82;99617.81;5048111;28;20088;-73
2024/02/07 11:33:05;;;;;;;1.00;0.30;;;;;;;-3.58;61.31;99632.31;5045463;28;20084;-73
2024/02/07 11:35:33;;;;;;;1.08;0.30;;;;;;;-3.57;61.02;99619.56;5050096;28;20080;-73
2024/02/07 11:38:03;;;;;;;0.73;0.30;;;;;;;-3.57;61.30;99634.91;5044354;28;20056;-73
2024/02/07 11:40:38;;;;;;;1.20;0.30;;;;;;;-3.56;60.84;99636.63;5045167;28;20053;-73
2024/02/07 11:43:07;;;;;;;0.30;0.15;;;;;;;-3.55;61.27;99643.47;5044483;28;20075;-73
2024/02/07 11:45:38;;;;;;;0.50;0.30;;;;;;;-3.55;60.29;99651.13;5045136;28;20057;-73
2024/02/07 11:48:18;;;;;;;0.85;0.20;;;;;;;-3.53;60.71;99640.94;5047495;28;20087;-73
2024/02/07 11:50:45;;;;;;;1.02;0.30;;;;;;;-3.53;61.21;99646.06;5043956;28;20089;-72
2024/02/07 11:53:19;;;;;;;0.47;0.25;;;;;;;-3.52;60.97;99643.50;5043972;28;20046;-73
2024/02/07 11:55:47;;;;;;;0.57;0.20;;;;;;;-3.52;60.85;99658.00;5044166;28;20065;-72
2024/02/07 11:58:17;;;;;;;0.47;0.20;;;;;;;-3.55;60.02;99652.81;5047979;28;20045;-73
2024/02/07 12:00:45;;;;;;;0.93;0.30;;;;;;;-3.53;59.75;99654.56;5047630;28;20041;-73
2024/02/07 12:03:15;;;;;;;0.55;0.20;;;;;;;-3.52;59.84;99647.75;5043552;28;20084;-73
2024/02/07 12:05:43;;;;;;;2.28;0.35;;;;;;;-3.53;59.36;99656.28;5045985;28;20041;-70
2024/02/07 12:08:12;;;;;;;2.15;0.30;;;;;;;-3.53;59.14;99652.03;5046542;28;20052;-69
2024/02/07 12:10:40;;;;;;;5.28;0.40;;;;;;;-3.53;59.60;99662.25;5047205;28;20054;-69
2024/02/07 12:13:07;;;;;;;1.05;0.28;;;;;;;-3.52;59.62;99661.41;5045132;28;20086;-69
2024/02/07 12:15:36;;;;;;;0.88;0.20;;;;;;;-3.50;59.52;99661.44;5046384;28;20041;-71
2024/02/07 12:18:04;;;;;;;1.38;0.43;;;;;;;-3.47;59.55;99663.19;5043495;28;20053;-70
2024/02/07 12:20:32;;;;;;;1.42;0.22;;;;;;;-3.48;59.52;99659.75;5044889;28;20481;-70
2024/02/07 12:23:00;;;;;;;2.42;0.30;;;;;;;-3.50;59.63;99657.19;5045962;28;20514;-70
2024/02/07 12:25:27;;;;;;;1.17;0.38;;;;;;;-3.45;59.80;99670.03;5043683;28;20049;-70
2024/02/07 12:27:54;;;;;;;0.52;0.30;;;;;;;-3.44;59.68;99660.69;5044636;28;20076;-70
2024/02/07 12:30:21;;;;;;;1.95;0.28;;;;;;;-3.41;59.53;99670.97;5046195;28;20501;-70
2024/02/07 12:32:48;;;;;;;1.95;0.20;;;;;;;-3.42;59.50;99662.44;5043504;28;20077;-70
2024/02/07 12:35:15;;;;;;;0.43;0.20;;;;;;;-3.42;58.91;99665.00;5044397;28;20132;-70
2024/02/07 12:37:44;;;;;;;2.65;0.40;;;;;;;-3.44;59.17;99661.53;5045924;28;20080;-70
2024/02/07 12:40:13;;;;;;;1.35;0.30;;;;;;;-3.41;59.31;99678.63;5043103;28;20077;-70
2024/02/07 12:42:40;;;;;;;0.68;0.28;;;;;;;-3.41;59.53;99670.97;5044129;28;20049;-70